sensor_id;sensor_type;location;lat;lon;timestamp;pressure;altitude;pressure_sealevel;temperature
72287;BMP180;60221;45.696;16.076;2022-12-07T00:01:24;100490.00;;;6.10
72287;BMP180;60221;45.696;16.076;2022-12-07T00:03:56;100489.00;;;6.00
72287;BMP180;60221;45.696;16.076;2022-12-07T00:06:26;100488.00;;;6.00
72287;BMP180;60221;45.696;16.076;2022-12-07T00:08:53;100493.00;;;6.00
72287;BMP180;60221;45.696;16.076;2022-12-07T00:11:21;100488.00;;;6.00
72287;BMP180;60221;45.696;16.076;2022-12-07T00:13:54;100485.00;;;5.90
72287;BMP180;60221;45.696;16.076;2022-12-07T00:16:25;100477.00;;;5.90
72287;BMP180;60221;45.696;16.076;2022-12-07T00:18:52;100483.00;;;5.80
72287;BMP180;60221;45.696;16.076;2022-12-07T00:21:28;100479.00;;;5.80
72287;BMP180;60221;45.696;16.076;2022-12-07T00:23:53;100492.00;;;5.80
72287;BMP180;60221;45.696;16.076;2022-12-07T00:26:27;100493.00;;;5.80
72287;BMP180;60221;45.696;16.076;2022-12-07T00:28:58;100507.00;;;5.70
72287;BMP180;60221;45.696;16.076;2022-12-07T00:31:30;100498.00;;;5.70
72287;BMP180;60221;45.696;16.076;2022-12-07T00:34:02;100506.00;;;5.70
72287;BMP180;60221;45.696;16.076;2022-12-07T00:36:28;100498.00;;;5.70
72287;BMP180;60221;45.696;16.076;2022-12-07T00:38:55;100494.00;;;5.70
72287;BMP180;60221;45.696;16.076;2022-12-07T00:41:25;100496.00;;;5.70
72287;BMP180;60221;45.696;16.076;2022-12-07T00:43:53;100498.00;;;5.70
72287;BMP180;60221;45.696;16.076;2022-12-07T00:46:21;100494.00;;;5.70
72287;BMP180;60221;45.696;16.076;2022-12-07T00:48:49;100500.00;;;5.70
72287;BMP180;60221;45.696;16.076;2022-12-07T00:51:20;100486.00;;;5.60
72287;BMP180;60221;45.696;16.076;2022-12-07T00:53:48;100482.00;;;5.60
72287;BMP180;60221;45.696;16.076;2022-12-07T00:56:23;100483.00;;;5.70
72287;BMP180;60221;45.696;16.076;2022-12-07T01:01:26;100476.00;;;5.70
72287;BMP180;60221;45.696;16.076;2022-12-07T01:03:54;100478.00;;;5.80
72287;BMP180;60221;45.696;16.076;2022-12-07T01:06:22;100479.00;;;5.80
72287;BMP180;60221;45.696;16.076;2022-12-07T01:08:50;100471.00;;;5.80
72287;BMP180;60221;45.696;16.076;2022-12-07T01:11:20;100486.00;;;5.90
72287;BMP180;60221;45.696;16.076;2022-12-07T01:13:53;100481.00;;;5.90
72287;BMP180;60221;45.696;16.076;2022-12-07T01:16:23;100483.00;;;5.90
72287;BMP180;60221;45.696;16.076;2022-12-07T01:18:53;100469.00;;;5.90
72287;BMP180;60221;45.696;16.076;2022-12-07T01:21:27;100473.00;;;5.90
72287;BMP180;60221;45.696;16.076;2022-12-07T01:23:57;100471.00;;;5.90
72287;BMP180;60221;45.696;16.076;2022-12-07T01:26:24;100473.00;;;5.90
72287;BMP180;60221;45.696;16.076;2022-12-07T01:28:53;100465.00;;;5.90
72287;BMP180;60221;45.696;16.076;2022-12-07T01:31:25;100469.00;;;6.00
72287;BMP180;60221;45.696;16.076;2022-12-07T01:33:55;100461.00;;;6.00
72287;BMP180;60221;45.696;16.076;2022-12-07T01:36:28;100464.00;;;6.10
72287;BMP180;60221;45.696;16.076;2022-12-07T01:39:02;100457.00;;;6.10
72287;BMP180;60221;45.696;16.076;2022-12-07T01:41:34;100465.00;;;6.10
72287;BMP180;60221;45.696;16.076;2022-12-07T01:44:15;100460.00;;;6.10
72287;BMP180;60221;45.696;16.076;2022-12-07T01:47:02;100449.00;;;6.20
72287;BMP180;60221;45.696;16.076;2022-12-07T01:49:42;100453.00;;;6.20
72287;BMP180;60221;45.696;16.076;2022-12-07T01:52:23;100452.00;;;6.20
72287;BMP180;60221;45.696;16.076;2022-12-07T01:54:54;100461.00;;;6.20
72287;BMP180;60221;45.696;16.076;2022-12-07T01:57:26;100452.00;;;6.20
72287;BMP180;60221;45.696;16.076;2022-12-07T01:59:54;100454.00;;;6.20
72287;BMP180;60221;45.696;16.076;2022-12-07T02:02:30;100448.00;;;6.20
72287;BMP180;60221;45.696;16.076;2022-12-07T02:05:04;100458.00;;;6.30
72287;BMP180;60221;45.696;16.076;2022-12-07T02:07:34;100444.00;;;6.30
72287;BMP180;60221;45.696;16.076;2022-12-07T02:13:02;100440.00;;;6.30
72287;BMP180;60221;45.696;16.076;2022-12-07T02:21:58;100439.00;;;6.20
72287;BMP180;60221;45.696;16.076;2022-12-07T02:27:38;100431.00;;;6.20
72287;BMP180;60221;45.696;16.076;2022-12-07T02:30:22;100433.00;;;6.30
72287;BMP180;60221;45.696;16.076;2022-12-07T02:33:11;100426.00;;;6.30
72287;BMP180;60221;45.696;16.076;2022-12-07T02:35:44;100418.00;;;6.30
72287;BMP180;60221;45.696;16.076;2022-12-07T02:38:25;100416.00;;;6.30
72287;BMP180;60221;45.696;16.076;2022-12-07T02:41:05;100415.00;;;6.30
72287;BMP180;60221;45.696;16.076;2022-12-07T02:43:43;100409.00;;;6.30
72287;BMP180;60221;45.696;16.076;2022-12-07T02:46:27;100416.00;;;6.30
72287;BMP180;60221;45.696;16.076;2022-12-07T02:49:02;100409.00;;;6.30
72287;BMP180;60221;45.696;16.076;2022-12-07T02:51:30;100399.00;;;6.30
72287;BMP180;60221;45.696;16.076;2022-12-07T02:53:59;100403.00;;;6.30
72287;BMP180;60221;45.696;16.076;2022-12-07T03:08:12;100376.00;;;6.30
72287;BMP180;60221;45.696;16.076;2022-12-07T03:16:58;100367.00;;;6.30
72287;BMP180;60221;45.696;16.076;2022-12-07T03:19:27;100375.00;;;6.30
72287;BMP180;60221;45.696;16.076;2022-12-07T03:21:57;100374.00;;;6.40
72287;BMP180;60221;45.696;16.076;2022-12-07T03:24:28;100380.00;;;6.40
72287;BMP180;60221;45.696;16.076;2022-12-07T03:27:03;100373.00;;;6.40
72287;BMP180;60221;45.696;16.076;2022-12-07T03:29:39;100376.00;;;6.40
72287;BMP180;60221;45.696;16.076;2022-12-07T03:32:16;100380.00;;;6.40
72287;BMP180;60221;45.696;16.076;2022-12-07T03:34:51;100374.00;;;6.40
72287;BMP180;60221;45.696;16.076;2022-12-07T03:37:38;100385.00;;;6.40
72287;BMP180;60221;45.696;16.076;2022-12-07T03:42:41;100375.00;;;6.40
72287;BMP180;60221;45.696;16.076;2022-12-07T03:45:09;100373.00;;;6.40
72287;BMP180;60221;45.696;16.076;2022-12-07T03:47:53;100376.00;;;6.40
72287;BMP180;60221;45.696;16.076;2022-12-07T03:53:33;100365.00;;;6.30
72287;BMP180;60221;45.696;16.076;2022-12-07T03:56:00;100369.00;;;6.30
72287;BMP180;60221;45.696;16.076;2022-12-07T03:58:30;100366.00;;;6.30
72287;BMP180;60221;45.696;16.076;2022-12-07T04:00:57;100358.00;;;6.30
72287;BMP180;60221;45.696;16.076;2022-12-07T04:03:23;100360.00;;;6.40
72287;BMP180;60221;45.696;16.076;2022-12-07T04:05:50;100355.00;;;6.40
72287;BMP180;60221;45.696;16.076;2022-12-07T04:08:16;100355.00;;;6.50
72287;BMP180;60221;45.696;16.076;2022-12-07T04:10:42;100360.00;;;6.50
72287;BMP180;60221;45.696;16.076;2022-12-07T04:13:09;100360.00;;;6.50
72287;BMP180;60221;45.696;16.076;2022-12-07T04:15:35;100357.00;;;6.50
72287;BMP180;60221;45.696;16.076;2022-12-07T04:18:01;100348.00;;;6.50
72287;BMP180;60221;45.696;16.076;2022-12-07T04:20:27;100355.00;;;6.50
72287;BMP180;60221;45.696;16.076;2022-12-07T04:22:53;100357.00;;;6.50
72287;BMP180;60221;45.696;16.076;2022-12-07T04:25:20;100369.00;;;6.50
72287;BMP180;60221;45.696;16.076;2022-12-07T04:27:46;100366.00;;;6.50
72287;BMP180;60221;45.696;16.076;2022-12-07T04:30:13;100371.00;;;6.50
72287;BMP180;60221;45.696;16.076;2022-12-07T04:32:39;100376.00;;;6.40
72287;BMP180;60221;45.696;16.076;2022-12-07T04:35:06;100371.00;;;6.40
72287;BMP180;60221;45.696;16.076;2022-12-07T04:37:33;100357.00;;;6.40
72287;BMP180;60221;45.696;16.076;2022-12-07T04:39:59;100361.00;;;6.50
72287;BMP180;60221;45.696;16.076;2022-12-07T04:42:25;100364.00;;;6.50
72287;BMP180;60221;45.696;16.076;2022-12-07T04:44:51;100361.00;;;6.50
72287;BMP180;60221;45.696;16.076;2022-12-07T04:47:18;100362.00;;;6.50
72287;BMP180;60221;45.696;16.076;2022-12-07T04:49:44;100364.00;;;6.50
72287;BMP180;60221;45.696;16.076;2022-12-07T04:52:10;100360.00;;;6.50
72287;BMP180;60221;45.696;16.076;2022-12-07T04:54:36;100356.00;;;6.50
72287;BMP180;60221;45.696;16.076;2022-12-07T04:57:02;100352.00;;;6.50
72287;BMP180;60221;45.696;16.076;2022-12-07T04:59:28;100343.00;;;6.60
72287;BMP180;60221;45.696;16.076;2022-12-07T05:01:54;100354.00;;;6.60
72287;BMP180;60221;45.696;16.076;2022-12-07T05:04:21;100350.00;;;6.60
72287;BMP180;60221;45.696;16.076;2022-12-07T05:06:47;100350.00;;;6.60
72287;BMP180;60221;45.696;16.076;2022-12-07T05:09:13;100340.00;;;6.60
72287;BMP180;60221;45.696;16.076;2022-12-07T05:11:39;100342.00;;;6.60
72287;BMP180;60221;45.696;16.076;2022-12-07T05:14:12;100346.00;;;6.60
72287;BMP180;60221;45.696;16.076;2022-12-07T05:16:48;100352.00;;;6.60
72287;BMP180;60221;45.696;16.076;2022-12-07T05:19:17;100348.00;;;6.60
72287;BMP180;60221;45.696;16.076;2022-12-07T05:21:45;100346.00;;;6.60
72287;BMP180;60221;45.696;16.076;2022-12-07T05:24:13;100359.00;;;6.60
72287;BMP180;60221;45.696;16.076;2022-12-07T05:26:41;100350.00;;;6.60
72287;BMP180;60221;45.696;16.076;2022-12-07T05:29:13;100355.00;;;6.70
72287;BMP180;60221;45.696;16.076;2022-12-07T05:31:42;100356.00;;;6.70
72287;BMP180;60221;45.696;16.076;2022-12-07T05:34:09;100350.00;;;6.60
72287;BMP180;60221;45.696;16.076;2022-12-07T05:36:36;100349.00;;;6.60
72287;BMP180;60221;45.696;16.076;2022-12-07T05:39:02;100353.00;;;6.60
72287;BMP180;60221;45.696;16.076;2022-12-07T05:41:29;100343.00;;;6.60
72287;BMP180;60221;45.696;16.076;2022-12-07T05:44:13;100342.00;;;6.60
72287;BMP180;60221;45.696;16.076;2022-12-07T05:46:40;100344.00;;;6.60
72287;BMP180;60221;45.696;16.076;2022-12-07T05:49:06;100344.00;;;6.70
72287;BMP180;60221;45.696;16.076;2022-12-07T05:51:33;100353.00;;;6.70
72287;BMP180;60221;45.696;16.076;2022-12-07T05:53:59;100343.00;;;6.70
72287;BMP180;60221;45.696;16.076;2022-12-07T05:56:25;100349.00;;;6.70
72287;BMP180;60221;45.696;16.076;2022-12-07T05:58:52;100341.00;;;6.60
72287;BMP180;60221;45.696;16.076;2022-12-07T06:01:36;100343.00;;;6.60
72287;BMP180;60221;45.696;16.076;2022-12-07T06:04:02;100338.00;;;6.60
72287;BMP180;60221;45.696;16.076;2022-12-07T06:06:29;100346.00;;;6.60
72287;BMP180;60221;45.696;16.076;2022-12-07T06:08:55;100337.00;;;6.70
72287;BMP180;60221;45.696;16.076;2022-12-07T06:11:21;100348.00;;;6.70
72287;BMP180;60221;45.696;16.076;2022-12-07T06:14:06;100348.00;;;6.70
72287;BMP180;60221;45.696;16.076;2022-12-07T06:16:32;100353.00;;;6.70
72287;BMP180;60221;45.696;16.076;2022-12-07T06:18:58;100360.00;;;6.70
72287;BMP180;60221;45.696;16.076;2022-12-07T06:21:25;100364.00;;;6.70
72287;BMP180;60221;45.696;16.076;2022-12-07T06:23:54;100363.00;;;6.70
72287;BMP180;60221;45.696;16.076;2022-12-07T06:26:21;100362.00;;;6.70
72287;BMP180;60221;45.696;16.076;2022-12-07T06:28:48;100364.00;;;6.70
72287;BMP180;60221;45.696;16.076;2022-12-07T06:31:14;100368.00;;;6.70
72287;BMP180;60221;45.696;16.076;2022-12-07T06:33:41;100362.00;;;6.70
72287;BMP180;60221;45.696;16.076;2022-12-07T06:36:08;100368.00;;;6.70
72287;BMP180;60221;45.696;16.076;2022-12-07T06:38:35;100374.00;;;6.70
72287;BMP180;60221;45.696;16.076;2022-12-07T06:41:01;100367.00;;;6.70
72287;BMP180;60221;45.696;16.076;2022-12-07T06:43:28;100368.00;;;6.70
72287;BMP180;60221;45.696;16.076;2022-12-07T06:45:55;100375.00;;;6.70
72287;BMP180;60221;45.696;16.076;2022-12-07T06:48:21;100368.00;;;6.70
72287;BMP180;60221;45.696;16.076;2022-12-07T06:50:48;100373.00;;;6.70
72287;BMP180;60221;45.696;16.076;2022-12-07T06:53:15;100390.00;;;6.70
72287;BMP180;60221;45.696;16.076;2022-12-07T06:55:41;100381.00;;;6.70
72287;BMP180;60221;45.696;16.076;2022-12-07T06:58:07;100386.00;;;6.70
72287;BMP180;60221;45.696;16.076;2022-12-07T07:00:34;100390.00;;;6.70
72287;BMP180;60221;45.696;16.076;2022-12-07T07:03:01;100384.00;;;6.70
72287;BMP180;60221;45.696;16.076;2022-12-07T07:05:27;100381.00;;;6.70
72287;BMP180;60221;45.696;16.076;2022-12-07T07:07:53;100390.00;;;6.80
72287;BMP180;60221;45.696;16.076;2022-12-07T07:10:19;100396.00;;;6.80
72287;BMP180;60221;45.696;16.076;2022-12-07T07:12:45;100390.00;;;6.80
72287;BMP180;60221;45.696;16.076;2022-12-07T07:15:11;100396.00;;;6.80
72287;BMP180;60221;45.696;16.076;2022-12-07T07:17:37;100400.00;;;6.80
72287;BMP180;60221;45.696;16.076;2022-12-07T07:20:04;100393.00;;;6.80
72287;BMP180;60221;45.696;16.076;2022-12-07T07:22:31;100396.00;;;6.80
72287;BMP180;60221;45.696;16.076;2022-12-07T07:24:58;100393.00;;;6.80
72287;BMP180;60221;45.696;16.076;2022-12-07T07:27:24;100397.00;;;6.90
72287;BMP180;60221;45.696;16.076;2022-12-07T07:29:50;100397.00;;;6.90
72287;BMP180;60221;45.696;16.076;2022-12-07T07:32:16;100396.00;;;6.90
72287;BMP180;60221;45.696;16.076;2022-12-07T07:34:42;100397.00;;;6.90
72287;BMP180;60221;45.696;16.076;2022-12-07T07:37:09;100393.00;;;7.00
72287;BMP180;60221;45.696;16.076;2022-12-07T07:39:36;100395.00;;;7.00
72287;BMP180;60221;45.696;16.076;2022-12-07T07:42:03;100403.00;;;7.00
72287;BMP180;60221;45.696;16.076;2022-12-07T07:44:31;100394.00;;;7.00
72287;BMP180;60221;45.696;16.076;2022-12-07T07:46:57;100393.00;;;7.00
72287;BMP180;60221;45.696;16.076;2022-12-07T07:49:24;100398.00;;;7.00
72287;BMP180;60221;45.696;16.076;2022-12-07T07:51:50;100396.00;;;7.00
72287;BMP180;60221;45.696;16.076;2022-12-07T07:54:16;100409.00;;;7.00
72287;BMP180;60221;45.696;16.076;2022-12-07T07:56:42;100400.00;;;7.00
72287;BMP180;60221;45.696;16.076;2022-12-07T07:59:09;100403.00;;;7.10
72287;BMP180;60221;45.696;16.076;2022-12-07T08:01:35;100404.00;;;7.10
72287;BMP180;60221;45.696;16.076;2022-12-07T08:04:01;100403.00;;;7.20
72287;BMP180;60221;45.696;16.076;2022-12-07T08:06:27;100413.00;;;7.20
72287;BMP180;60221;45.696;16.076;2022-12-07T08:08:54;100414.00;;;7.20
72287;BMP180;60221;45.696;16.076;2022-12-07T08:11:20;100415.00;;;7.20
72287;BMP180;60221;45.696;16.076;2022-12-07T08:13:46;100419.00;;;7.20
72287;BMP180;60221;45.696;16.076;2022-12-07T08:16:13;100418.00;;;7.20
72287;BMP180;60221;45.696;16.076;2022-12-07T08:18:41;100415.00;;;7.20
72287;BMP180;60221;45.696;16.076;2022-12-07T08:21:13;100421.00;;;7.20
72287;BMP180;60221;45.696;16.076;2022-12-07T08:23:41;100417.00;;;7.20
72287;BMP180;60221;45.696;16.076;2022-12-07T08:26:11;100415.00;;;7.30
72287;BMP180;60221;45.696;16.076;2022-12-07T08:28:39;100410.00;;;7.30
72287;BMP180;60221;45.696;16.076;2022-12-07T08:31:10;100405.00;;;7.40
72287;BMP180;60221;45.696;16.076;2022-12-07T08:33:38;100405.00;;;7.40
72287;BMP180;60221;45.696;16.076;2022-12-07T08:36:08;100409.00;;;7.40
72287;BMP180;60221;45.696;16.076;2022-12-07T08:38:38;100410.00;;;7.40
72287;BMP180;60221;45.696;16.076;2022-12-07T08:41:06;100415.00;;;7.40
72287;BMP180;60221;45.696;16.076;2022-12-07T08:43:33;100421.00;;;7.40
72287;BMP180;60221;45.696;16.076;2022-12-07T08:46:13;100425.00;;;7.40
72287;BMP180;60221;45.696;16.076;2022-12-07T08:48:56;100414.00;;;7.30
72287;BMP180;60221;45.696;16.076;2022-12-07T08:51:25;100432.00;;;7.30
72287;BMP180;60221;45.696;16.076;2022-12-07T08:53:52;100425.00;;;7.20
72287;BMP180;60221;45.696;16.076;2022-12-07T08:56:20;100435.00;;;7.10
72287;BMP180;60221;45.696;16.076;2022-12-07T08:58:48;100445.00;;;7.10
72287;BMP180;60221;45.696;16.076;2022-12-07T09:01:14;100441.00;;;7.10
72287;BMP180;60221;45.696;16.076;2022-12-07T09:03:41;100437.00;;;7.10
72287;BMP180;60221;45.696;16.076;2022-12-07T09:06:07;100440.00;;;7.10
72287;BMP180;60221;45.696;16.076;2022-12-07T09:08:37;100444.00;;;7.00
72287;BMP180;60221;45.696;16.076;2022-12-07T09:11:06;100439.00;;;7.00
72287;BMP180;60221;45.696;16.076;2022-12-07T09:13:32;100443.00;;;7.00
72287;BMP180;60221;45.696;16.076;2022-12-07T09:15:58;100443.00;;;7.00
72287;BMP180;60221;45.696;16.076;2022-12-07T09:18:24;100445.00;;;7.00
72287;BMP180;60221;45.696;16.076;2022-12-07T09:20:51;100444.00;;;7.00
72287;BMP180;60221;45.696;16.076;2022-12-07T09:23:17;100451.00;;;7.00
72287;BMP180;60221;45.696;16.076;2022-12-07T09:25:43;100451.00;;;7.00
72287;BMP180;60221;45.696;16.076;2022-12-07T09:28:10;100451.00;;;7.00
72287;BMP180;60221;45.696;16.076;2022-12-07T09:30:36;100457.00;;;7.00
72287;BMP180;60221;45.696;16.076;2022-12-07T09:33:02;100455.00;;;7.00
72287;BMP180;60221;45.696;16.076;2022-12-07T09:35:28;100444.00;;;7.00
72287;BMP180;60221;45.696;16.076;2022-12-07T09:37:54;100441.00;;;7.00
72287;BMP180;60221;45.696;16.076;2022-12-07T09:40:22;100442.00;;;7.00
72287;BMP180;60221;45.696;16.076;2022-12-07T09:42:52;100446.00;;;7.10
72287;BMP180;60221;45.696;16.076;2022-12-07T09:45:27;100442.00;;;7.10
72287;BMP180;60221;45.696;16.076;2022-12-07T09:47:55;100443.00;;;7.20
72287;BMP180;60221;45.696;16.076;2022-12-07T09:50:24;100432.00;;;7.20
72287;BMP180;60221;45.696;16.076;2022-12-07T09:52:55;100442.00;;;7.30
72287;BMP180;60221;45.696;16.076;2022-12-07T09:55:28;100434.00;;;7.30
72287;BMP180;60221;45.696;16.076;2022-12-07T09:57:58;100436.00;;;7.30
72287;BMP180;60221;45.696;16.076;2022-12-07T10:00:24;100432.00;;;7.40
72287;BMP180;60221;45.696;16.076;2022-12-07T10:02:58;100425.00;;;7.40
72287;BMP180;60221;45.696;16.076;2022-12-07T10:05:36;100420.00;;;7.50
72287;BMP180;60221;45.696;16.076;2022-12-07T10:08:04;100414.00;;;7.50
72287;BMP180;60221;45.696;16.076;2022-12-07T10:10:34;100421.00;;;7.60
72287;BMP180;60221;45.696;16.076;2022-12-07T10:13:06;100413.00;;;7.70
72287;BMP180;60221;45.696;16.076;2022-12-07T10:15:52;100413.00;;;7.80
72287;BMP180;60221;45.696;16.076;2022-12-07T10:18:40;100413.00;;;7.80
72287;BMP180;60221;45.696;16.076;2022-12-07T10:21:20;100406.00;;;7.90
72287;BMP180;60221;45.696;16.076;2022-12-07T10:26:50;100402.00;;;8.00
72287;BMP180;60221;45.696;16.076;2022-12-07T10:29:53;100408.00;;;8.10
72287;BMP180;60221;45.696;16.076;2022-12-07T10:32:05;100407.00;;;8.10
72287;BMP180;60221;45.696;16.076;2022-12-07T10:34:43;100398.00;;;8.10
72287;BMP180;60221;45.696;16.076;2022-12-07T10:39:48;100404.00;;;8.20
72287;BMP180;60221;45.696;16.076;2022-12-07T10:42:28;100394.00;;;8.20
72287;BMP180;60221;45.696;16.076;2022-12-07T10:45:15;100401.00;;;8.30
72287;BMP180;60221;45.696;16.076;2022-12-07T10:47:48;100405.00;;;8.30
72287;BMP180;60221;45.696;16.076;2022-12-07T10:59:48;100386.00;;;8.50
72287;BMP180;60221;45.696;16.076;2022-12-07T11:08:21;100377.00;;;8.60
72287;BMP180;60221;45.696;16.076;2022-12-07T11:11:01;100372.00;;;8.70
72287;BMP180;60221;45.696;16.076;2022-12-07T11:17:07;100394.00;;;8.80
72287;BMP180;60221;45.696;16.076;2022-12-07T11:23:18;100378.00;;;8.70
72287;BMP180;60221;45.696;16.076;2022-12-07T11:32:17;100370.00;;;8.60
72287;BMP180;60221;45.696;16.076;2022-12-07T11:37:59;100364.00;;;8.60
72287;BMP180;60221;45.696;16.076;2022-12-07T11:40:33;100354.00;;;8.50
72287;BMP180;60221;45.696;16.076;2022-12-07T11:43:13;100353.00;;;8.50
72287;BMP180;60221;45.696;16.076;2022-12-07T11:48:37;100345.00;;;8.50
72287;BMP180;60221;45.696;16.076;2022-12-07T11:51:07;100349.00;;;8.60
72287;BMP180;60221;45.696;16.076;2022-12-07T11:53:44;100346.00;;;8.60
72287;BMP180;60221;45.696;16.076;2022-12-07T11:56:17;100339.00;;;8.70
72287;BMP180;60221;45.696;16.076;2022-12-07T11:58:55;100344.00;;;8.80
72287;BMP180;60221;45.696;16.076;2022-12-07T12:01:52;100353.00;;;8.80
72287;BMP180;60221;45.696;16.076;2022-12-07T12:07:22;100351.00;;;8.80
72287;BMP180;60221;45.696;16.076;2022-12-07T12:10:02;100351.00;;;8.70
72287;BMP180;60221;45.696;16.076;2022-12-07T12:19:25;100353.00;;;8.50
72287;BMP180;60221;45.696;16.076;2022-12-07T12:21:32;100348.00;;;8.50
72287;BMP180;60221;45.696;16.076;2022-12-07T12:24:03;100357.00;;;8.50
72287;BMP180;60221;45.696;16.076;2022-12-07T12:26:33;100353.00;;;8.50
72287;BMP180;60221;45.696;16.076;2022-12-07T12:29:27;100352.00;;;8.40
72287;BMP180;60221;45.696;16.076;2022-12-07T12:32:20;100340.00;;;8.40
72287;BMP180;60221;45.696;16.076;2022-12-07T12:35:02;100342.00;;;8.40
72287;BMP180;60221;45.696;16.076;2022-12-07T12:42:54;100340.00;;;8.30
72287;BMP180;60221;45.696;16.076;2022-12-07T12:45:25;100335.00;;;8.30
72287;BMP180;60221;45.696;16.076;2022-12-07T12:50:36;100332.00;;;8.40
72287;BMP180;60221;45.696;16.076;2022-12-07T12:53:24;100333.00;;;8.40
72287;BMP180;60221;45.696;16.076;2022-12-07T12:58:38;100338.00;;;8.50
72287;BMP180;60221;45.696;16.076;2022-12-07T13:01:38;100324.00;;;8.50
72287;BMP180;60221;45.696;16.076;2022-12-07T13:04:17;100335.00;;;8.50
72287;BMP180;60221;45.696;16.076;2022-12-07T13:06:44;100332.00;;;8.50
72287;BMP180;60221;45.696;16.076;2022-12-07T13:09:26;100333.00;;;8.50
72287;BMP180;60221;45.696;16.076;2022-12-07T13:12:01;100334.00;;;8.50
72287;BMP180;60221;45.696;16.076;2022-12-07T13:14:52;100335.00;;;8.50
72287;BMP180;60221;45.696;16.076;2022-12-07T13:20:07;100342.00;;;8.50
72287;BMP180;60221;45.696;16.076;2022-12-07T13:22:37;100343.00;;;8.50
72287;BMP180;60221;45.696;16.076;2022-12-07T13:25:27;100348.00;;;8.50
72287;BMP180;60221;45.696;16.076;2022-12-07T13:28:18;100342.00;;;8.50
72287;BMP180;60221;45.696;16.076;2022-12-07T13:33:46;100341.00;;;8.50
72287;BMP180;60221;45.696;16.076;2022-12-07T13:36:22;100342.00;;;8.50
72287;BMP180;60221;45.696;16.076;2022-12-07T13:41:28;100334.00;;;8.50
72287;BMP180;60221;45.696;16.076;2022-12-07T13:44:09;100338.00;;;8.50
72287;BMP180;60221;45.696;16.076;2022-12-07T13:49:38;100355.00;;;8.50
72287;BMP180;60221;45.696;16.076;2022-12-07T13:54:54;100352.00;;;8.50
72287;BMP180;60221;45.696;16.076;2022-12-07T13:57:26;100353.00;;;8.50
72287;BMP180;60221;45.696;16.076;2022-12-07T13:59:54;100352.00;;;8.50
72287;BMP180;60221;45.696;16.076;2022-12-07T14:02:24;100348.00;;;8.40
72287;BMP180;60221;45.696;16.076;2022-12-07T14:04:52;100345.00;;;8.40
72287;BMP180;60221;45.696;16.076;2022-12-07T14:07:23;100349.00;;;8.40
72287;BMP180;60221;45.696;16.076;2022-12-07T14:09:57;100357.00;;;8.40
72287;BMP180;60221;45.696;16.076;2022-12-07T14:12:26;100354.00;;;8.40
72287;BMP180;60221;45.696;16.076;2022-12-07T14:14:55;100344.00;;;8.30
72287;BMP180;60221;45.696;16.076;2022-12-07T14:17:26;100351.00;;;8.30
72287;BMP180;60221;45.696;16.076;2022-12-07T14:19:57;100353.00;;;8.40
72287;BMP180;60221;45.696;16.076;2022-12-07T14:22:29;100356.00;;;8.40
72287;BMP180;60221;45.696;16.076;2022-12-07T14:27:58;100360.00;;;8.40
72287;BMP180;60221;45.696;16.076;2022-12-07T14:30:29;100366.00;;;8.40
72287;BMP180;60221;45.696;16.076;2022-12-07T14:33:01;100367.00;;;8.40
72287;BMP180;60221;45.696;16.076;2022-12-07T14:35:30;100372.00;;;8.40
72287;BMP180;60221;45.696;16.076;2022-12-07T14:37:58;100377.00;;;8.40
72287;BMP180;60221;45.696;16.076;2022-12-07T14:40:27;100370.00;;;8.40
72287;BMP180;60221;45.696;16.076;2022-12-07T14:43:02;100370.00;;;8.30
72287;BMP180;60221;45.696;16.076;2022-12-07T14:45:33;100367.00;;;8.30
72287;BMP180;60221;45.696;16.076;2022-12-07T14:47:59;100364.00;;;8.30
72287;BMP180;60221;45.696;16.076;2022-12-07T14:50:26;100364.00;;;8.30
72287;BMP180;60221;45.696;16.076;2022-12-07T14:52:59;100362.00;;;8.30
72287;BMP180;60221;45.696;16.076;2022-12-07T14:55:29;100347.00;;;8.20
72287;BMP180;60221;45.696;16.076;2022-12-07T14:57:58;100358.00;;;8.20
72287;BMP180;60221;45.696;16.076;2022-12-07T15:00:26;100360.00;;;8.20
72287;BMP180;60221;45.696;16.076;2022-12-07T15:02:53;100360.00;;;8.20
72287;BMP180;60221;45.696;16.076;2022-12-07T15:05:21;100366.00;;;8.20
72287;BMP180;60221;45.696;16.076;2022-12-07T15:07:49;100379.00;;;8.20
72287;BMP180;60221;45.696;16.076;2022-12-07T15:10:22;100377.00;;;8.10
72287;BMP180;60221;45.696;16.076;2022-12-07T15:12:50;100376.00;;;8.00
72287;BMP180;60221;45.696;16.076;2022-12-07T15:15:17;100383.00;;;7.90
72287;BMP180;60221;45.696;16.076;2022-12-07T15:17:43;100371.00;;;7.90
72287;BMP180;60221;45.696;16.076;2022-12-07T15:20:12;100387.00;;;7.80
72287;BMP180;60221;45.696;16.076;2022-12-07T15:22:42;100391.00;;;7.70
72287;BMP180;60221;45.696;16.076;2022-12-07T15:25:09;100387.00;;;7.70
72287;BMP180;60221;45.696;16.076;2022-12-07T15:27:40;100386.00;;;7.70
72287;BMP180;60221;45.696;16.076;2022-12-07T15:30:08;100387.00;;;7.70
72287;BMP180;60221;45.696;16.076;2022-12-07T15:32:35;100384.00;;;7.70
72287;BMP180;60221;45.696;16.076;2022-12-07T15:35:01;100380.00;;;7.70
72287;BMP180;60221;45.696;16.076;2022-12-07T15:37:27;100380.00;;;7.60
72287;BMP180;60221;45.696;16.076;2022-12-07T15:39:53;100392.00;;;7.60
72287;BMP180;60221;45.696;16.076;2022-12-07T15:42:19;100390.00;;;7.60
72287;BMP180;60221;45.696;16.076;2022-12-07T15:44:45;100394.00;;;7.60
72287;BMP180;60221;45.696;16.076;2022-12-07T15:47:31;100398.00;;;7.60
72287;BMP180;60221;45.696;16.076;2022-12-07T15:50:00;100410.00;;;7.60
72287;BMP180;60221;45.696;16.076;2022-12-07T15:52:26;100406.00;;;7.60
72287;BMP180;60221;45.696;16.076;2022-12-07T15:54:53;100409.00;;;7.60
72287;BMP180;60221;45.696;16.076;2022-12-07T15:57:19;100415.00;;;7.60
72287;BMP180;60221;45.696;16.076;2022-12-07T15:59:45;100413.00;;;7.60
72287;BMP180;60221;45.696;16.076;2022-12-07T16:02:11;100409.00;;;7.60
72287;BMP180;60221;45.696;16.076;2022-12-07T16:04:38;100419.00;;;7.60
72287;BMP180;60221;45.696;16.076;2022-12-07T16:07:04;100416.00;;;7.60
72287;BMP180;60221;45.696;16.076;2022-12-07T16:09:31;100416.00;;;7.50
72287;BMP180;60221;45.696;16.076;2022-12-07T16:11:58;100407.00;;;7.50